createdAt,value
2018-07-19T00:01:09.200Z,2.13
2018-07-19T00:03:37.247Z,2.20
2018-07-19T00:06:05.594Z,2.60
2018-07-19T00:08:33.508Z,2.40
2018-07-19T00:11:01.521Z,2.10
2018-07-19T00:13:29.557Z,2.40
2018-07-19T00:15:58.472Z,2.30
2018-07-19T00:18:26.837Z,2.67
2018-07-19T00:20:56.282Z,3.00
2018-07-19T00:23:24.825Z,2.13
2018-07-19T00:25:53.281Z,2.20
2018-07-19T00:28:21.351Z,2.10
2018-07-19T00:30:49.397Z,2.10
2018-07-19T00:33:17.441Z,2.03
2018-07-19T00:35:45.480Z,2.07
2018-07-19T00:38:13.521Z,2.80
2018-07-19T00:40:41.549Z,2.20
2018-07-19T00:43:09.762Z,2.53
2018-07-19T00:45:37.808Z,2.40
2018-07-19T00:48:05.844Z,3.70
2018-07-19T00:50:34.018Z,2.50
2018-07-19T00:53:02.304Z,2.07
2018-07-19T00:55:30.337Z,2.90
2018-07-19T00:57:58.316Z,2.67
2018-07-19T01:00:26.342Z,2.47
2018-07-19T01:02:54.380Z,2.57
2018-07-19T01:05:22.414Z,2.20
2018-07-19T01:07:50.447Z,2.40
2018-07-19T01:10:18.497Z,2.40
2018-07-19T01:12:46.537Z,2.63
2018-07-19T01:15:14.559Z,2.27
2018-07-19T01:17:43.264Z,3.00
2018-07-19T01:20:11.297Z,2.77
2018-07-19T01:22:39.347Z,2.87
2018-07-19T01:25:07.562Z,2.47
2018-07-19T01:27:35.661Z,2.23
2018-07-19T01:30:03.741Z,2.90
2018-07-19T01:32:31.576Z,3.37
2018-07-19T01:34:59.618Z,2.63
2018-07-19T01:37:27.648Z,2.70
2018-07-19T01:39:55.522Z,2.40
2018-07-19T01:42:35.889Z,2.63
2018-07-19T01:45:04.661Z,2.70
2018-07-19T01:47:32.718Z,2.90
2018-07-19T01:50:00.769Z,3.10
2018-07-19T01:52:28.716Z,2.67
2018-07-19T01:54:56.787Z,2.93
2018-07-19T01:57:24.845Z,2.97
2018-07-19T01:59:52.698Z,3.13
2018-07-19T02:02:20.958Z,2.80
2018-07-19T02:04:49.006Z,3.43
2018-07-19T02:07:17.097Z,3.40
2018-07-19T02:09:45.469Z,4.40
2018-07-19T02:12:13.533Z,3.60
2018-07-19T02:14:41.587Z,3.03
2018-07-19T02:17:09.624Z,3.27
2018-07-19T02:19:37.665Z,3.50
2018-07-19T02:22:05.826Z,3.40
2018-07-19T02:24:34.317Z,3.77
2018-07-19T02:27:02.367Z,3.53
2018-07-19T02:29:30.417Z,4.40
2018-07-19T02:31:58.505Z,4.33
2018-07-19T02:34:26.563Z,3.70
2018-07-19T02:36:55.064Z,4.10
2018-07-19T02:39:23.104Z,3.80
2018-07-19T02:41:51.146Z,4.07
2018-07-19T02:44:19.189Z,3.63
2018-07-19T02:46:47.252Z,4.30
2018-07-19T02:49:15.312Z,3.70
2018-07-19T02:51:43.809Z,3.40
2018-07-19T02:54:12.196Z,4.10
2018-07-19T02:56:40.241Z,4.07
2018-07-19T02:59:08.432Z,5.07
2018-07-19T03:01:36.501Z,5.80
2018-07-19T03:04:04.853Z,3.83
2018-07-19T03:06:33.278Z,4.00
2018-07-19T03:09:01.266Z,4.33
2018-07-19T03:11:29.305Z,4.50
2018-07-19T03:13:57.365Z,4.47
2018-07-19T03:16:25.425Z,4.43
2018-07-19T03:18:53.480Z,4.13
2018-07-19T03:21:21.541Z,5.00
2018-07-19T03:23:49.610Z,4.70
2018-07-19T03:26:17.682Z,4.60
2018-07-19T03:28:45.726Z,4.50
2018-07-19T03:31:13.806Z,4.63
2018-07-19T03:33:41.873Z,5.10
2018-07-19T03:36:09.928Z,4.40
2018-07-19T03:38:37.981Z,4.70
2018-07-19T03:41:06.441Z,4.80
2018-07-19T03:43:34.481Z,5.30
2018-07-19T03:46:02.568Z,6.13
2018-07-19T03:48:30.822Z,5.80
2018-07-19T03:50:58.873Z,5.30
2018-07-19T03:53:27.313Z,5.20
2018-07-19T03:55:55.381Z,4.80
2018-07-19T03:58:23.442Z,6.03
2018-07-19T04:00:51.501Z,5.53
2018-07-19T04:03:19.565Z,6.00
2018-07-19T04:05:47.621Z,6.10
2018-07-19T04:08:15.669Z,5.53
2018-07-19T04:10:43.725Z,5.27
2018-07-19T04:13:11.785Z,4.93
2018-07-19T04:15:39.899Z,4.83
2018-07-19T04:18:07.944Z,4.60
2018-07-19T04:20:35.994Z,5.13
2018-07-19T04:23:04.121Z,4.57
2018-07-19T04:25:32.177Z,5.47
2018-07-19T04:28:00.237Z,4.50
2018-07-19T04:30:28.278Z,3.63
2018-07-19T04:32:56.329Z,4.30
2018-07-19T04:35:24.419Z,4.33
2018-07-19T04:37:52.292Z,4.80
2018-07-19T04:40:20.368Z,4.20
2018-07-19T04:42:48.426Z,5.10
2018-07-19T04:45:16.562Z,5.57
2018-07-19T04:47:44.606Z,4.63
2018-07-19T04:50:12.666Z,4.30
2018-07-19T04:52:40.713Z,4.40
2018-07-19T04:55:08.579Z,3.80
2018-07-19T04:57:36.636Z,4.50
2018-07-19T05:00:05.178Z,3.80
2018-07-19T05:02:33.275Z,3.63
2018-07-19T05:05:01.328Z,4.13
2018-07-19T05:07:29.418Z,4.23
2018-07-19T05:09:57.265Z,4.50
2018-07-19T05:12:25.317Z,3.83
2018-07-19T05:14:53.191Z,5.10
2018-07-19T05:17:21.225Z,4.93
2018-07-19T05:19:49.285Z,6.40
2018-07-19T05:22:17.437Z,8.50
2018-07-19T05:24:45.488Z,4.83
2018-07-19T05:27:13.533Z,4.80
2018-07-19T05:29:41.618Z,5.00
2018-07-19T05:32:09.536Z,4.37
2018-07-19T05:34:37.800Z,5.43
2018-07-19T05:37:05.797Z,5.53
2018-07-19T05:39:33.849Z,4.70
2018-07-19T05:42:01.971Z,4.70
2018-07-19T05:44:29.957Z,4.57
2018-07-19T05:46:58.040Z,5.00
2018-07-19T05:49:26.036Z,4.10
2018-07-19T05:51:53.877Z,4.43
2018-07-19T05:54:21.922Z,4.50
2018-07-19T05:56:50.024Z,4.27
2018-07-19T05:59:18.086Z,4.70
2018-07-19T06:01:46.146Z,6.13
2018-07-19T06:04:14.188Z,4.97
2018-07-19T06:06:42.309Z,5.20
2018-07-19T06:09:11.469Z,4.10
2018-07-19T06:11:39.821Z,5.07
2018-07-19T06:14:07.883Z,4.23
2018-07-19T06:16:35.933Z,5.33
2018-07-19T06:19:04.202Z,5.67
2018-07-19T06:21:32.279Z,5.47
2018-07-19T06:24:00.372Z,4.57
2018-07-19T06:26:29.401Z,5.37
2018-07-19T06:28:57.452Z,3.60
2018-07-19T06:31:25.518Z,3.73
2018-07-19T06:33:54.560Z,3.27
2018-07-19T06:36:22.622Z,2.70
2018-07-19T06:38:50.682Z,3.10
2018-07-19T06:41:18.747Z,2.50
2018-07-19T06:43:46.844Z,3.20
2018-07-19T06:46:14.901Z,3.00
2018-07-19T06:48:43.158Z,3.00
2018-07-19T06:51:11.209Z,3.03
2018-07-19T06:53:39.343Z,2.97
2018-07-19T06:56:07.402Z,3.30
2018-07-19T06:58:35.461Z,3.20
2018-07-19T07:01:03.534Z,3.00
2018-07-19T07:03:31.636Z,3.50
2018-07-19T07:05:59.647Z,2.53
2018-07-19T07:08:27.701Z,3.27
2018-07-19T07:10:55.810Z,2.90
2018-07-19T07:13:23.869Z,2.63
2018-07-19T07:15:51.965Z,2.83
2018-07-19T07:18:20.143Z,3.10
2018-07-19T07:20:49.072Z,3.07
2018-07-19T07:23:17.113Z,2.73
2018-07-19T07:25:48.016Z,2.93
2018-07-19T07:28:16.359Z,3.00
2018-07-19T07:30:44.409Z,2.70
2018-07-19T07:33:13.176Z,3.07
2018-07-19T07:35:41.222Z,2.70
2018-07-19T07:38:09.277Z,2.70
2018-07-19T07:40:37.322Z,2.90
2018-07-19T07:43:06.181Z,2.90
2018-07-19T07:45:34.382Z,2.90
2018-07-19T07:48:02.490Z,2.70
2018-07-19T07:50:30.442Z,2.70
2018-07-19T07:52:58.650Z,3.10
2018-07-19T07:55:26.705Z,3.10
2018-07-19T07:57:54.670Z,2.83
2018-07-19T08:00:22.804Z,2.80
2018-07-19T08:02:51.041Z,4.43
2018-07-19T08:05:19.105Z,2.90
2018-07-19T08:07:47.441Z,3.37
2018-07-19T08:10:15.848Z,2.60
2018-07-19T08:12:43.929Z,3.63
2018-07-19T08:15:11.788Z,3.23
2018-07-19T08:17:39.861Z,4.10
2018-07-19T08:20:07.945Z,2.70
2018-07-19T08:22:36.006Z,3.33
2018-07-19T08:25:04.386Z,3.83
2018-07-19T08:27:32.441Z,3.47
2018-07-19T08:30:00.547Z,3.73
2018-07-19T08:32:28.640Z,3.07
2018-07-19T08:34:57.019Z,3.90
2018-07-19T08:37:24.860Z,3.47
2018-07-19T08:39:53.909Z,3.77
2018-07-19T08:42:21.969Z,2.73
2018-07-19T08:44:50.026Z,3.23
2018-07-19T08:47:18.093Z,3.20
2018-07-19T08:49:47.293Z,2.80
2018-07-19T08:52:15.881Z,3.10
2018-07-19T08:54:44.709Z,3.13
2018-07-19T08:57:12.873Z,3.70
2018-07-19T08:59:40.923Z,2.73
2018-07-19T09:02:08.985Z,2.77
2018-07-19T09:04:38.046Z,6.70
2018-07-19T09:07:06.103Z,4.47
2018-07-19T09:09:34.218Z,2.83
2018-07-19T09:12:02.277Z,2.80
2018-07-19T09:14:30.322Z,3.03
2018-07-19T09:16:58.400Z,2.97
2018-07-19T09:19:26.485Z,3.37
2018-07-19T09:21:54.505Z,3.70
2018-07-19T09:24:22.553Z,3.10
2018-07-19T09:26:50.617Z,3.60
2018-07-19T09:29:18.702Z,3.60
2018-07-19T09:31:46.752Z,3.50
2018-07-19T09:34:14.833Z,3.70
2018-07-19T09:36:43.077Z,3.13
2018-07-19T09:39:12.415Z,2.90
2018-07-19T09:41:41.253Z,3.07
2018-07-19T09:44:09.485Z,3.27
2018-07-19T09:46:37.733Z,3.23
2018-07-19T09:49:05.929Z,2.60
2018-07-19T09:51:34.246Z,3.00
2018-07-19T09:54:02.626Z,3.30
2018-07-19T09:56:31.061Z,3.30
2018-07-19T09:58:59.136Z,2.87
2018-07-19T10:01:27.200Z,4.00
2018-07-19T10:03:55.265Z,3.03
2018-07-19T10:06:23.318Z,2.80
2018-07-19T10:08:51.386Z,3.00
2018-07-19T10:11:19.461Z,3.20
2018-07-19T10:13:47.881Z,3.10
2018-07-19T10:16:16.125Z,2.93
2018-07-19T10:18:44.312Z,3.33
2018-07-19T10:21:12.362Z,3.33
2018-07-19T10:23:40.429Z,3.77
2018-07-19T10:26:08.559Z,3.13
2018-07-19T10:28:36.644Z,3.00
2018-07-19T10:31:04.894Z,2.77
2018-07-19T10:33:33.536Z,3.40
2018-07-19T10:36:01.668Z,2.97
2018-07-19T10:38:30.745Z,3.13
2018-07-19T10:40:58.596Z,2.97
2018-07-19T10:43:26.670Z,3.40
2018-07-19T10:45:55.303Z,3.13
2018-07-19T10:48:23.558Z,4.43
2018-07-19T10:50:51.622Z,3.03
2018-07-19T10:53:19.778Z,4.03
2018-07-19T10:55:47.848Z,3.60
2018-07-19T10:58:15.919Z,3.43
2018-07-19T11:00:43.961Z,3.70
2018-07-19T11:03:12.051Z,3.07
2018-07-19T11:05:40.117Z,3.23
2018-07-19T11:08:08.178Z,3.20
2018-07-19T11:10:36.226Z,3.70
2018-07-19T11:13:04.279Z,3.27
2018-07-19T11:15:32.355Z,2.73
2018-07-19T11:18:00.394Z,3.60
2018-07-19T11:20:28.457Z,3.97
2018-07-19T11:22:56.538Z,3.03
2018-07-19T11:25:24.631Z,3.20
2018-07-19T11:27:52.666Z,3.37
2018-07-19T11:30:20.723Z,3.73
2018-07-19T11:32:48.785Z,3.17
2018-07-19T11:35:16.910Z,4.50
2018-07-19T11:37:44.931Z,3.30
2018-07-19T11:40:12.989Z,3.60
2018-07-19T11:42:41.094Z,2.67
2018-07-19T11:45:09.102Z,3.10
2018-07-19T11:47:37.146Z,3.37
2018-07-19T11:50:05.698Z,3.00
2018-07-19T11:52:33.750Z,3.07
2018-07-19T11:55:01.847Z,2.97
2018-07-19T11:57:29.908Z,4.50
2018-07-19T11:59:57.956Z,3.10
2018-07-19T12:02:26.018Z,3.23
2018-07-19T12:04:54.076Z,2.83
2018-07-19T12:07:22.116Z,2.97
2018-07-19T12:09:50.218Z,2.83
2018-07-19T12:12:18.256Z,3.00
2018-07-19T12:14:46.326Z,3.33
2018-07-19T12:17:14.417Z,3.60
2018-07-19T12:19:42.479Z,3.30
2018-07-19T12:22:10.528Z,3.03
2018-07-19T12:24:38.585Z,2.90
2018-07-19T12:27:06.642Z,2.90
2018-07-19T12:29:34.689Z,2.83
2018-07-19T12:32:02.774Z,3.20
2018-07-19T12:34:30.967Z,3.77
2018-07-19T12:36:59.076Z,3.53
2018-07-19T12:39:27.103Z,3.23
2018-07-19T12:41:55.146Z,3.80
2018-07-19T12:44:23.199Z,3.60
2018-07-19T12:46:51.245Z,3.30
2018-07-19T12:49:19.307Z,3.10
2018-07-19T12:51:47.341Z,3.50
2018-07-19T12:54:15.403Z,3.23
2018-07-19T12:56:43.604Z,3.90
2018-07-19T12:59:11.670Z,4.40
2018-07-19T13:01:39.742Z,4.10
2018-07-19T13:04:07.802Z,3.73
2018-07-19T13:06:35.879Z,4.27
2018-07-19T13:09:05.936Z,4.00
2018-07-19T13:11:34.038Z,3.87
2018-07-19T13:14:02.086Z,4.37
2018-07-19T13:16:30.254Z,3.30
2018-07-19T13:18:58.286Z,2.73
2018-07-19T13:21:26.343Z,3.40
2018-07-19T13:23:54.395Z,3.80
2018-07-19T13:26:22.448Z,3.70
2018-07-19T13:28:50.513Z,3.70
2018-07-19T13:31:18.614Z,3.50
2018-07-19T13:33:46.677Z,3.23
2018-07-19T13:36:14.773Z,3.67
2018-07-19T13:38:42.854Z,3.97
2018-07-19T13:41:10.921Z,3.97
2018-07-19T13:43:38.984Z,3.30
2018-07-19T13:46:07.063Z,3.70
2018-07-19T13:48:35.110Z,4.27
2018-07-19T13:51:03.173Z,3.87
2018-07-19T13:53:42.724Z,3.63
2018-07-19T13:56:10.842Z,3.90
2018-07-19T13:58:39.292Z,4.10
2018-07-19T14:01:07.358Z,2.90
2018-07-19T14:03:35.589Z,3.73
2018-07-19T14:06:03.783Z,3.30
2018-07-19T14:08:32.516Z,3.90
2018-07-19T14:11:00.570Z,3.20
2018-07-19T14:13:28.621Z,3.07
2018-07-19T14:15:56.689Z,3.43
2018-07-19T14:18:24.763Z,3.40
2018-07-19T14:20:52.822Z,3.23
2018-07-19T14:23:20.898Z,3.47
2018-07-19T14:25:48.968Z,3.10
2018-07-19T14:28:17.045Z,3.30
2018-07-19T14:30:45.306Z,3.20
2018-07-19T14:33:13.369Z,3.10
2018-07-19T14:35:41.420Z,3.30
2018-07-19T14:38:09.478Z,3.27
2018-07-19T14:40:37.601Z,3.30
2018-07-19T14:43:05.683Z,3.03
2018-07-19T14:45:33.746Z,3.17
2018-07-19T14:48:01.840Z,3.00
2018-07-19T14:50:29.865Z,4.07
2018-07-19T14:52:57.925Z,3.20
2018-07-19T14:55:25.977Z,3.13
2018-07-19T14:57:54.657Z,3.33
2018-07-19T15:00:22.707Z,3.20
2018-07-19T15:02:50.778Z,3.10
2018-07-19T15:05:18.881Z,2.93
2018-07-19T15:07:46.943Z,2.93
2018-07-19T15:10:14.991Z,3.00
2018-07-19T15:12:43.049Z,2.97
2018-07-19T15:15:11.089Z,2.77
2018-07-19T15:17:39.137Z,3.00
2018-07-19T15:20:07.208Z,3.23
2018-07-19T15:22:35.258Z,2.87
2018-07-19T15:25:03.325Z,2.40
2018-07-19T15:27:31.386Z,2.57
2018-07-19T15:29:59.429Z,3.60
2018-07-19T15:32:27.492Z,3.77
2018-07-19T15:34:55.594Z,2.50
2018-07-19T15:37:23.648Z,2.43
2018-07-19T15:39:51.711Z,2.73
2018-07-19T15:42:19.736Z,2.93
2018-07-19T15:44:47.786Z,2.60
2018-07-19T15:47:15.847Z,3.40
2018-07-19T15:49:43.900Z,2.67
2018-07-19T15:52:11.952Z,2.70
2018-07-19T15:54:39.987Z,3.23
2018-07-19T15:57:08.445Z,2.97
2018-07-19T15:59:36.508Z,2.67
2018-07-19T16:02:04.695Z,2.80
2018-07-19T16:04:32.746Z,2.20
2018-07-19T16:07:00.809Z,2.63
2018-07-19T16:09:28.874Z,2.90
2018-07-19T16:11:56.945Z,3.10
2018-07-19T16:14:25.019Z,3.00
2018-07-19T16:16:53.065Z,2.60
2018-07-19T16:19:21.130Z,2.73
2018-07-19T16:21:49.225Z,2.27
2018-07-19T16:24:17.462Z,2.70
2018-07-19T16:26:45.517Z,2.40
2018-07-19T16:29:13.665Z,2.97
2018-07-19T16:31:41.725Z,2.93
2018-07-19T16:34:09.850Z,3.00
2018-07-19T16:36:37.838Z,2.57
2018-07-19T16:39:07.548Z,2.73
2018-07-19T16:41:36.070Z,2.47
2018-07-19T16:44:04.210Z,3.07
2018-07-19T16:46:32.300Z,3.13
2018-07-19T16:49:00.367Z,3.00
2018-07-19T16:51:28.418Z,3.33
2018-07-19T16:53:56.489Z,2.80
2018-07-19T16:56:24.598Z,2.80
2018-07-19T16:58:52.649Z,2.40
2018-07-19T17:01:20.728Z,2.57
2018-07-19T17:03:48.834Z,2.90
2018-07-19T17:06:16.986Z,3.10
2018-07-19T17:08:45.035Z,2.87
2018-07-19T17:11:14.214Z,3.33
2018-07-19T17:13:42.262Z,2.33
2018-07-19T17:16:10.321Z,3.00
2018-07-19T17:18:38.407Z,2.90
2018-07-19T17:21:06.448Z,2.97
2018-07-19T17:23:34.501Z,3.17
2018-07-19T17:26:02.548Z,2.70
2018-07-19T17:28:30.613Z,2.37
2018-07-19T17:30:58.665Z,2.63
2018-07-19T17:33:26.829Z,2.40
2018-07-19T17:35:54.880Z,2.50
2018-07-19T17:38:22.934Z,2.70
2018-07-19T17:40:51.017Z,3.30
2018-07-19T17:43:19.101Z,3.00
2018-07-19T17:45:47.205Z,2.63
2018-07-19T17:48:15.293Z,2.50
2018-07-19T17:50:43.426Z,2.10
2018-07-19T17:53:11.332Z,3.10
2018-07-19T17:55:39.378Z,2.20
2018-07-19T17:58:07.473Z,2.70
2018-07-19T18:00:35.743Z,2.33
2018-07-19T18:03:04.055Z,2.13
2018-07-19T18:05:32.233Z,2.33
2018-07-19T18:08:00.359Z,2.43
2018-07-19T18:10:28.413Z,2.80
2018-07-19T18:12:56.476Z,2.20
2018-07-19T18:15:24.353Z,2.50
2018-07-19T18:17:52.405Z,2.00
2018-07-19T18:20:20.595Z,2.53
2018-07-19T18:22:48.614Z,2.30
2018-07-19T18:25:16.654Z,2.17
2018-07-19T18:27:44.742Z,2.43
2018-07-19T18:30:12.788Z,2.30
2018-07-19T18:32:40.841Z,2.37
2018-07-19T18:35:08.906Z,2.77
2018-07-19T18:37:36.954Z,2.33
2018-07-19T18:40:05.237Z,2.20
2018-07-19T18:42:33.273Z,3.10
2018-07-19T18:45:01.370Z,3.00
2018-07-19T18:47:29.453Z,2.73
2018-07-19T18:49:57.550Z,2.57
2018-07-19T18:52:25.597Z,1.97
2018-07-19T18:54:53.678Z,2.27
2018-07-19T18:57:21.724Z,1.80
2018-07-19T18:59:49.786Z,1.70
2018-07-19T19:02:17.670Z,2.20
2018-07-19T19:04:45.852Z,2.00
2018-07-19T19:07:13.941Z,1.97
2018-07-19T19:09:42.031Z,1.93
2018-07-19T19:12:10.446Z,1.70
2018-07-19T19:14:38.542Z,1.80
2018-07-19T19:17:06.651Z,1.80
2018-07-19T19:19:34.701Z,2.00
2018-07-19T19:22:02.775Z,2.30
2018-07-19T19:24:30.846Z,2.33
2018-07-19T19:26:58.937Z,2.07
2018-07-19T19:29:27.019Z,2.10
2018-07-19T19:31:55.115Z,1.97
2018-07-19T19:34:23.240Z,2.10
2018-07-19T19:36:51.300Z,2.27
2018-07-19T19:39:19.496Z,2.27
2018-07-19T19:41:47.545Z,1.90
2018-07-19T19:44:15.676Z,2.20
2018-07-19T19:46:43.690Z,2.17
2018-07-19T19:49:11.749Z,2.00
2018-07-19T19:51:39.593Z,2.43
2018-07-19T19:54:07.496Z,2.37
2018-07-19T19:56:35.558Z,2.00
2018-07-19T19:59:04.533Z,2.60
2018-07-19T20:01:32.609Z,2.90
2018-07-19T20:04:00.671Z,2.33
2018-07-19T20:06:28.722Z,2.50
2018-07-19T20:08:56.777Z,2.87
2018-07-19T20:11:24.851Z,2.83
2018-07-19T20:13:52.901Z,2.80
2018-07-19T20:16:21.009Z,3.07
2018-07-19T20:18:49.057Z,5.47
2018-07-19T20:21:17.143Z,2.60
2018-07-19T20:23:45.388Z,2.87
2018-07-19T20:26:13.429Z,2.43
2018-07-19T20:28:41.367Z,2.60
2018-07-19T20:31:09.429Z,2.60
2018-07-19T20:33:37.476Z,3.03
2018-07-19T20:36:05.377Z,2.70
2018-07-19T20:38:33.436Z,3.20
2018-07-19T20:41:01.499Z,2.43
2018-07-19T20:43:29.568Z,3.10
2018-07-19T20:45:57.624Z,4.00
2018-07-19T20:48:25.680Z,3.60
2018-07-19T20:50:53.754Z,6.47
2018-07-19T20:53:21.854Z,5.40
2018-07-19T20:55:49.918Z,5.07
2018-07-19T20:58:18.025Z,5.70
2018-07-19T21:00:45.885Z,3.90
2018-07-19T21:03:13.937Z,4.20
2018-07-19T21:05:42.013Z,4.63
2018-07-19T21:08:10.117Z,4.17
2018-07-19T21:10:38.165Z,2.90
2018-07-19T21:13:06.309Z,3.30
2018-07-19T21:15:34.369Z,2.70
2018-07-19T21:18:02.463Z,8.83
2018-07-19T21:20:31.127Z,4.00
2018-07-19T21:22:59.187Z,6.50
2018-07-19T21:25:27.275Z,4.10
2018-07-19T21:27:55.363Z,4.20
2018-07-19T21:30:23.434Z,2.60
2018-07-19T21:32:52.357Z,4.13
2018-07-19T21:35:20.709Z,6.77
2018-07-19T21:37:48.757Z,3.20
2018-07-19T21:40:16.822Z,2.30
2018-07-19T21:42:44.888Z,4.93
2018-07-19T21:45:13.153Z,3.33
2018-07-19T21:47:41.209Z,2.43
2018-07-19T21:50:09.401Z,2.77
2018-07-19T21:52:37.437Z,2.20
2018-07-19T21:55:06.120Z,2.50
2018-07-19T21:57:34.178Z,2.37
2018-07-19T22:00:02.234Z,2.00
2018-07-19T22:02:30.687Z,3.13
2018-07-19T22:04:58.946Z,3.10
2018-07-19T22:07:26.998Z,2.90
2018-07-19T22:09:55.052Z,2.03
2018-07-19T22:12:23.103Z,2.97
2018-07-19T22:14:51.155Z,2.10
2018-07-19T22:17:19.415Z,2.30
2018-07-19T22:19:47.470Z,1.87
2018-07-19T22:22:15.518Z,2.50
2018-07-19T22:24:43.436Z,2.63
2018-07-19T22:27:11.498Z,2.70
2018-07-19T22:29:39.555Z,3.10
2018-07-19T22:32:07.619Z,2.60
2018-07-19T22:34:35.670Z,2.80
2018-07-19T22:37:03.722Z,2.23
2018-07-19T22:39:31.770Z,2.20
2018-07-19T22:41:59.826Z,2.27
2018-07-19T22:44:27.872Z,2.00
2018-07-19T22:46:55.952Z,2.30
2018-07-19T22:49:24.192Z,2.40
2018-07-19T22:51:52.245Z,2.20
2018-07-19T22:54:20.281Z,2.40
2018-07-19T22:56:48.329Z,2.40
2018-07-19T22:59:16.377Z,2.37
2018-07-19T23:01:44.430Z,2.60
2018-07-19T23:04:12.481Z,2.47
2018-07-19T23:06:40.328Z,2.00
2018-07-19T23:09:09.152Z,2.00
2018-07-19T23:11:37.201Z,2.60
2018-07-19T23:14:05.245Z,2.23
2018-07-19T23:16:33.296Z,2.80
2018-07-19T23:19:01.392Z,2.03
2018-07-19T23:21:29.458Z,2.70
2018-07-19T23:23:57.530Z,1.87
2018-07-19T23:26:25.850Z,2.80
2018-07-19T23:28:54.893Z,2.20
2018-07-19T23:31:22.949Z,1.90
2018-07-19T23:33:52.030Z,2.70
2018-07-19T23:36:38.616Z,2.00
2018-07-19T23:39:10.865Z,2.40
2018-07-19T23:41:44.782Z,2.50
2018-07-19T23:44:26.394Z,2.30
2018-07-19T23:46:58.838Z,2.33
2018-07-19T23:49:26.890Z,2.00
2018-07-19T23:51:55.829Z,2.30
2018-07-19T23:54:23.761Z,2.40
2018-07-19T23:56:51.821Z,2.20
2018-07-19T23:59:19.877Z,2.33
